RYR5606 EBCI-LMML
Flight info
| Callsign | RYR5606 |
|---|---|
| Flight time | 2h 21m |
| Altitude | 37000 |
| Route | GZO3B GZO M622 SOPIR DCT MABOX DCT ADEXI DCT ROXAN DCT KISTO DCT KONER DCT AOSTA DCT ORSUD DCT MOLUS DCT GILIR DCT PENDU DCT IXILU DCT GIVOR DCT SORAL DCT IBERA DCT DIK Y37 BATTY BATTY7A |
| Aircraft | B738/M-SDE3/L |
Departure
| Time | 2026-04-28 20:49 |
|---|---|
| Airport | Brussels South Charleroi Airport (EBCI) |
Arrival
| Time | 2026-04-28 23:10 |
|---|---|
| Airport | Malta International Airport (LMML) |
| Time | Latitude | Longitude | Altitude | Speed | Heading |
|---|---|---|---|---|---|
| 2026-04-28 20:14 | 50.46855 | 4.47042 | 584 ft | 0 kts | 335° |
| 2026-04-28 20:41 | 50.46844 | 4.47050 | 584 ft | 3 kts | 330° |
| 2026-04-28 20:41 | 50.46828 | 4.47067 | 584 ft | 3 kts | 314° |
| 2026-04-28 20:41 | 50.46816 | 4.47091 | 584 ft | 3 kts | 285° |
| 2026-04-28 20:41 | 50.46815 | 4.47115 | 585 ft | 2 kts | 248° |
| 2026-04-28 20:42 | 50.46816 | 4.47120 | 585 ft | 0 kts | 246° |
| 2026-04-28 20:43 | 50.46814 | 4.47112 | 585 ft | 3 kts | 246° |
| 2026-04-28 20:44 | 50.46793 | 4.47042 | 584 ft | 11 kts | 245° |
| 2026-04-28 20:44 | 50.46759 | 4.46927 | 585 ft | 12 kts | 245° |
| 2026-04-28 20:44 | 50.46725 | 4.46813 | 586 ft | 11 kts | 240° |
| 2026-04-28 20:44 | 50.46658 | 4.46790 | 590 ft | 11 kts | 154° |
| 2026-04-28 20:45 | 50.46593 | 4.46753 | 590 ft | 11 kts | 237° |
| 2026-04-28 20:45 | 50.46562 | 4.46647 | 590 ft | 11 kts | 245° |
| 2026-04-28 20:45 | 50.46524 | 4.46518 | 589 ft | 17 kts | 245° |
| 2026-04-28 20:45 | 50.46457 | 4.46289 | 589 ft | 27 kts | 245° |
| 2026-04-28 20:46 | 50.46380 | 4.46023 | 593 ft | 26 kts | 245° |
| 2026-04-28 20:46 | 50.46304 | 4.45762 | 596 ft | 25 kts | 245° |
| 2026-04-28 20:46 | 50.46234 | 4.45519 | 598 ft | 24 kts | 245° |
| 2026-04-28 20:46 | 50.46164 | 4.45278 | 598 ft | 26 kts | 246° |
| 2026-04-28 20:47 | 50.46075 | 4.44971 | 595 ft | 34 kts | 245° |
| 2026-04-28 20:47 | 50.45983 | 4.44659 | 597 ft | 21 kts | 245° |
| 2026-04-28 20:47 | 50.45919 | 4.44454 | 599 ft | 21 kts | 237° |
| 2026-04-28 20:47 | 50.45833 | 4.44276 | 598 ft | 20 kts | 232° |
| 2026-04-28 20:48 | 50.45745 | 4.44099 | 594 ft | 21 kts | 231° |
| 2026-04-28 20:48 | 50.45638 | 4.44007 | 593 ft | 17 kts | 135° |
| 2026-04-28 20:48 | 50.45648 | 4.44126 | 593 ft | 8 kts | 66° |
| 2026-04-28 20:48 | 50.45711 | 4.44343 | 596 ft | 56 kts | 65° |
| 2026-04-28 20:49 | 50.45989 | 4.45300 | 589 ft | 134 kts | 65° |
| 2026-04-28 20:49 | 50.46434 | 4.46860 | 1026 ft | 163 kts | 65° |
| 2026-04-28 20:49 | 50.46891 | 4.48388 | 2387 ft | 147 kts | 64° |
| 2026-04-28 20:49 | 50.47705 | 4.49575 | 3080 ft | 183 kts | 32° |
| 2026-04-28 20:50 | 50.48979 | 4.50294 | 3575 ft | 200 kts | 40° |
| 2026-04-28 20:50 | 50.49914 | 4.51958 | 3883 ft | 216 kts | 60° |
| 2026-04-28 20:50 | 50.50782 | 4.53994 | 4331 ft | 235 kts | 59° |
| 2026-04-28 20:50 | 50.51764 | 4.56220 | 4832 ft | 256 kts | 58° |
| 2026-04-28 20:51 | 50.52790 | 4.58453 | 5803 ft | 259 kts | 56° |
| 2026-04-28 20:51 | 50.53862 | 4.60739 | 7002 ft | 251 kts | 58° |
| 2026-04-28 20:51 | 50.54517 | 4.63299 | 7768 ft | 261 kts | 88° |
| 2026-04-28 20:51 | 50.54349 | 4.65159 | 8370 ft | 263 kts | 107° |
| 2026-04-28 20:52 | 50.53241 | 4.68635 | 9598 ft | 269 kts | 118° |
| 2026-04-28 20:52 | 50.52246 | 4.71140 | 10493 ft | 274 kts | 121° |
| 2026-04-28 20:52 | 50.51186 | 4.73743 | 10903 ft | 296 kts | 120° |
| 2026-04-28 20:52 | 50.50028 | 4.76586 | 11199 ft | 319 kts | 121° |
| 2026-04-28 20:53 | 50.47463 | 4.82575 | 12647 ft | 336 kts | 130° |
| 2026-04-28 20:53 | 50.45723 | 4.85118 | 13365 ft | 345 kts | 138° |
| 2026-04-28 20:53 | 50.43861 | 4.87554 | 14143 ft | 351 kts | 139° |
| 2026-04-28 20:54 | 50.42050 | 4.89887 | 14971 ft | 351 kts | 139° |
| 2026-04-28 20:54 | 50.40109 | 4.92390 | 15773 ft | 354 kts | 139° |
| 2026-04-28 20:54 | 50.38211 | 4.94851 | 16606 ft | 355 kts | 139° |
| 2026-04-28 20:54 | 50.36298 | 4.97345 | 17306 ft | 360 kts | 139° |
| 2026-04-28 20:55 | 50.34357 | 4.99886 | 18027 ft | 365 kts | 137° |
| 2026-04-28 20:55 | 50.32402 | 5.02450 | 18717 ft | 369 kts | 137° |
| 2026-04-28 20:55 | 50.30421 | 5.05052 | 19277 ft | 375 kts | 139° |
| 2026-04-28 20:55 | 50.28403 | 5.07702 | 19756 ft | 383 kts | 139° |
| 2026-04-28 20:56 | 50.26337 | 5.10413 | 20279 ft | 390 kts | 140° |
| 2026-04-28 20:56 | 50.24248 | 5.13151 | 20931 ft | 392 kts | 140° |
| 2026-04-28 20:56 | 50.22145 | 5.15905 | 21525 ft | 397 kts | 140° |
| 2026-04-28 20:56 | 50.20008 | 5.18699 | 22073 ft | 402 kts | 140° |
| 2026-04-28 20:57 | 50.17888 | 5.21468 | 22676 ft | 405 kts | 141° |
| 2026-04-28 20:57 | 50.15715 | 5.24305 | 23240 ft | 409 kts | 141° |
| 2026-04-28 20:57 | 50.13520 | 5.27165 | 23799 ft | 413 kts | 141° |
| 2026-04-28 20:57 | 50.11310 | 5.30042 | 24290 ft | 415 kts | 141° |
| 2026-04-28 20:58 | 50.09078 | 5.32945 | 24745 ft | 419 kts | 141° |
| 2026-04-28 20:58 | 50.06818 | 5.35879 | 25202 ft | 423 kts | 142° |
| 2026-04-28 20:58 | 50.04555 | 5.38815 | 25659 ft | 426 kts | 142° |
| 2026-04-28 20:58 | 50.02269 | 5.41776 | 26112 ft | 429 kts | 142° |
| 2026-04-28 20:59 | 49.99966 | 5.44754 | 26560 ft | 432 kts | 142° |
| 2026-04-28 20:59 | 49.97649 | 5.47748 | 26965 ft | 435 kts | 143° |
| 2026-04-28 20:59 | 49.95324 | 5.50747 | 27280 ft | 441 kts | 143° |
| 2026-04-28 20:59 | 49.92955 | 5.53800 | 27670 ft | 445 kts | 143° |
| 2026-04-28 21:00 | 49.90569 | 5.56870 | 28105 ft | 447 kts | 143° |
| 2026-04-28 21:00 | 49.88172 | 5.59952 | 28522 ft | 449 kts | 143° |
| 2026-04-28 21:00 | 49.85755 | 5.63054 | 28915 ft | 452 kts | 143° |
| 2026-04-28 21:00 | 49.83320 | 5.66176 | 29264 ft | 456 kts | 143° |
| 2026-04-28 21:01 | 49.80868 | 5.69314 | 29606 ft | 459 kts | 144° |
| 2026-04-28 21:01 | 49.78397 | 5.72472 | 29979 ft | 461 kts | 144° |
| 2026-04-28 21:01 | 49.75919 | 5.75636 | 30315 ft | 464 kts | 145° |
| 2026-04-28 21:01 | 49.73420 | 5.78822 | 30597 ft | 466 kts | 145° |
| 2026-04-28 21:02 | 49.70904 | 5.82025 | 30888 ft | 468 kts | 145° |
| 2026-04-28 21:02 | 49.68387 | 5.85227 | 31277 ft | 468 kts | 145° |
| 2026-04-28 21:02 | 49.65872 | 5.88423 | 31619 ft | 469 kts | 145° |
| 2026-04-28 21:02 | 49.63340 | 5.91632 | 31844 ft | 472 kts | 145° |
| 2026-04-28 21:03 | 49.60834 | 5.94805 | 32198 ft | 472 kts | 146° |
| 2026-04-28 21:03 | 49.58298 | 5.98015 | 32626 ft | 471 kts | 146° |
| 2026-04-28 21:03 | 49.55759 | 6.01222 | 32965 ft | 471 kts | 146° |
| 2026-04-28 21:03 | 49.53207 | 6.04440 | 33292 ft | 472 kts | 146° |
| 2026-04-28 21:04 | 49.50665 | 6.07644 | 33658 ft | 472 kts | 147° |
| 2026-04-28 21:04 | 49.48127 | 6.10835 | 34060 ft | 471 kts | 147° |
| 2026-04-28 21:04 | 49.45587 | 6.14015 | 34390 ft | 470 kts | 147° |
| 2026-04-28 21:04 | 49.43047 | 6.17168 | 34704 ft | 469 kts | 146° |
| 2026-04-28 21:05 | 49.40511 | 6.20303 | 35047 ft | 467 kts | 146° |
| 2026-04-28 21:05 | 49.37981 | 6.23426 | 35376 ft | 466 kts | 146° |
| 2026-04-28 21:05 | 49.35452 | 6.26544 | 35624 ft | 467 kts | 146° |
| 2026-04-28 21:05 | 49.32930 | 6.29649 | 35724 ft | 471 kts | 146° |
| 2026-04-28 21:06 | 49.30371 | 6.32798 | 35951 ft | 472 kts | 145° |
| 2026-04-28 21:06 | 49.27812 | 6.35948 | 36326 ft | 469 kts | 145° |
| 2026-04-28 21:06 | 49.25279 | 6.39063 | 36722 ft | 466 kts | 145° |
| 2026-04-28 21:06 | 49.22754 | 6.42164 | 37081 ft | 464 kts | 144° |
| 2026-04-28 21:07 | 49.17673 | 6.48384 | 37110 ft | 470 kts | 144° |
| 2026-04-28 21:07 | 49.12583 | 6.54602 | 37090 ft | 466 kts | 144° |
| 2026-04-28 21:08 | 49.07534 | 6.60755 | 37102 ft | 465 kts | 145° |
| 2026-04-28 21:08 | 49.02458 | 6.66921 | 37099 ft | 468 kts | 145° |
| 2026-04-28 21:09 | 48.97183 | 6.72710 | 37084 ft | 465 kts | 156° |
| 2026-04-28 21:09 | 48.91301 | 6.76770 | 37092 ft | 465 kts | 161° |
| 2026-04-28 21:10 | 48.85394 | 6.80676 | 37081 ft | 466 kts | 161° |
| 2026-04-28 21:10 | 48.79454 | 6.84660 | 37083 ft | 466 kts | 160° |
| 2026-04-28 21:11 | 48.73538 | 6.88667 | 37081 ft | 465 kts | 160° |
| 2026-04-28 21:11 | 48.67638 | 6.92667 | 37078 ft | 463 kts | 160° |
| 2026-04-28 21:12 | 48.61764 | 6.96638 | 37076 ft | 461 kts | 160° |
| 2026-04-28 21:12 | 48.55913 | 7.00580 | 37083 ft | 460 kts | 160° |
| 2026-04-28 21:13 | 48.50060 | 7.04512 | 37082 ft | 459 kts | 160° |
| 2026-04-28 21:13 | 48.44250 | 7.08405 | 37087 ft | 460 kts | 160° |
| 2026-04-28 21:14 | 48.38392 | 7.12322 | 37079 ft | 459 kts | 161° |
| 2026-04-28 21:14 | 48.32544 | 7.16221 | 37078 ft | 459 kts | 161° |
| 2026-04-28 21:15 | 48.26697 | 7.20110 | 37077 ft | 460 kts | 161° |
| 2026-04-28 21:15 | 48.20842 | 7.23996 | 37061 ft | 460 kts | 161° |
| 2026-04-28 21:16 | 48.15019 | 7.27850 | 37075 ft | 460 kts | 161° |
| 2026-04-28 21:16 | 48.09158 | 7.31719 | 37086 ft | 460 kts | 161° |
| 2026-04-28 21:17 | 48.03289 | 7.35584 | 37075 ft | 460 kts | 161° |
| 2026-04-28 21:17 | 47.97425 | 7.39437 | 37053 ft | 461 kts | 161° |
| 2026-04-28 21:18 | 47.92547 | 7.42634 | 37071 ft | 460 kts | 161° |
| 2026-04-28 21:18 | 47.86676 | 7.46474 | 37066 ft | 460 kts | 161° |
| 2026-04-28 21:19 | 47.80805 | 7.50305 | 37068 ft | 460 kts | 161° |
| 2026-04-28 21:19 | 47.74925 | 7.54133 | 37067 ft | 460 kts | 161° |
| 2026-04-28 21:20 | 47.69084 | 7.58086 | 37076 ft | 462 kts | 159° |
| 2026-04-28 21:20 | 47.63284 | 7.62215 | 37081 ft | 462 kts | 159° |
| 2026-04-28 21:21 | 47.57506 | 7.66322 | 37077 ft | 463 kts | 159° |
| 2026-04-28 21:21 | 47.51684 | 7.70421 | 37065 ft | 463 kts | 159° |
| 2026-04-28 21:22 | 47.45854 | 7.74500 | 37078 ft | 463 kts | 159° |
| 2026-04-28 21:22 | 47.40020 | 7.78568 | 37072 ft | 463 kts | 159° |
| 2026-04-28 21:23 | 47.34191 | 7.82623 | 37076 ft | 463 kts | 159° |
| 2026-04-28 21:23 | 47.28369 | 7.86665 | 37084 ft | 462 kts | 159° |
| 2026-04-28 21:24 | 47.22585 | 7.90670 | 37083 ft | 462 kts | 159° |
| 2026-04-28 21:24 | 47.16752 | 7.94700 | 37083 ft | 462 kts | 159° |
| 2026-04-28 21:25 | 47.10944 | 7.98703 | 37086 ft | 460 kts | 159° |
| 2026-04-28 21:25 | 47.05145 | 8.02690 | 37078 ft | 459 kts | 159° |
| 2026-04-28 21:26 | 46.99357 | 8.06659 | 37095 ft | 458 kts | 159° |
| 2026-04-28 21:26 | 46.93581 | 8.10611 | 37107 ft | 458 kts | 159° |
| 2026-04-28 21:27 | 46.87806 | 8.14552 | 37091 ft | 458 kts | 159° |
| 2026-04-28 21:27 | 46.82042 | 8.18476 | 37103 ft | 457 kts | 159° |
| 2026-04-28 21:28 | 46.76313 | 8.22364 | 37133 ft | 455 kts | 159° |
| 2026-04-28 21:28 | 46.70556 | 8.26268 | 37099 ft | 456 kts | 159° |
| 2026-04-28 21:29 | 46.64791 | 8.30166 | 37092 ft | 457 kts | 159° |
| 2026-04-28 21:29 | 46.59008 | 8.34067 | 37104 ft | 458 kts | 159° |
| 2026-04-28 21:30 | 46.53207 | 8.37971 | 37122 ft | 459 kts | 159° |
| 2026-04-28 21:30 | 46.47402 | 8.41868 | 37117 ft | 459 kts | 160° |
| 2026-04-28 21:31 | 46.41621 | 8.45744 | 37127 ft | 458 kts | 159° |
| 2026-04-28 21:31 | 46.35858 | 8.49593 | 37098 ft | 457 kts | 160° |
| 2026-04-28 21:32 | 46.30082 | 8.53443 | 37093 ft | 457 kts | 160° |
| 2026-04-28 21:32 | 46.24300 | 8.57287 | 37067 ft | 457 kts | 160° |
| 2026-04-28 21:33 | 46.18534 | 8.61115 | 37098 ft | 456 kts | 160° |
| 2026-04-28 21:33 | 46.12759 | 8.64939 | 37102 ft | 456 kts | 160° |
| 2026-04-28 21:34 | 46.06992 | 8.68716 | 37101 ft | 453 kts | 160° |
| 2026-04-28 21:34 | 46.01241 | 8.72409 | 37087 ft | 452 kts | 160° |
| 2026-04-28 21:35 | 45.95487 | 8.76084 | 37079 ft | 456 kts | 160° |
| 2026-04-28 21:35 | 45.89662 | 8.79804 | 37086 ft | 460 kts | 160° |
| 2026-04-28 21:36 | 45.83787 | 8.83553 | 37078 ft | 464 kts | 160° |
| 2026-04-28 21:36 | 45.77860 | 8.87330 | 37062 ft | 466 kts | 160° |
| 2026-04-28 21:37 | 45.71973 | 8.91075 | 37050 ft | 466 kts | 160° |
| 2026-04-28 21:37 | 45.66039 | 8.94840 | 37043 ft | 466 kts | 160° |
| 2026-04-28 21:38 | 45.60121 | 8.98585 | 37035 ft | 464 kts | 160° |
| 2026-04-28 21:38 | 45.54227 | 9.02307 | 37017 ft | 462 kts | 160° |
| 2026-04-28 21:39 | 45.48362 | 9.06000 | 37021 ft | 460 kts | 160° |
| 2026-04-28 21:39 | 45.42511 | 9.09677 | 37021 ft | 459 kts | 160° |
| 2026-04-28 21:40 | 45.36678 | 9.13334 | 37014 ft | 457 kts | 160° |
| 2026-04-28 21:40 | 45.30882 | 9.16958 | 37023 ft | 457 kts | 160° |
| 2026-04-28 21:41 | 45.25056 | 9.20595 | 37021 ft | 457 kts | 160° |
| 2026-04-28 21:41 | 45.19224 | 9.24226 | 37016 ft | 458 kts | 160° |
| 2026-04-28 21:42 | 45.13389 | 9.27851 | 37021 ft | 458 kts | 160° |
| 2026-04-28 21:42 | 45.07539 | 9.31478 | 37040 ft | 459 kts | 160° |
| 2026-04-28 21:43 | 45.01666 | 9.35110 | 37035 ft | 461 kts | 160° |
| 2026-04-28 21:43 | 44.95780 | 9.38743 | 37039 ft | 462 kts | 160° |
| 2026-04-28 21:44 | 44.89879 | 9.42376 | 37048 ft | 462 kts | 160° |
| 2026-04-28 21:44 | 44.84012 | 9.45982 | 37046 ft | 463 kts | 160° |
| 2026-04-28 21:45 | 44.78101 | 9.49605 | 37036 ft | 463 kts | 160° |
| 2026-04-28 21:45 | 44.72202 | 9.53214 | 37056 ft | 462 kts | 160° |
| 2026-04-28 21:46 | 44.66306 | 9.56812 | 37064 ft | 461 kts | 160° |
| 2026-04-28 21:46 | 44.60415 | 9.60400 | 37064 ft | 461 kts | 160° |
| 2026-04-28 21:47 | 44.54531 | 9.63974 | 37066 ft | 460 kts | 160° |
| 2026-04-28 21:47 | 44.48683 | 9.67520 | 37061 ft | 460 kts | 160° |
| 2026-04-28 21:48 | 44.42809 | 9.71073 | 37078 ft | 459 kts | 160° |
| 2026-04-28 21:48 | 44.36935 | 9.74618 | 37073 ft | 460 kts | 160° |
| 2026-04-28 21:49 | 44.31064 | 9.78154 | 37073 ft | 459 kts | 160° |
| 2026-04-28 21:49 | 44.25192 | 9.81683 | 37056 ft | 459 kts | 160° |
| 2026-04-28 21:50 | 44.19327 | 9.85201 | 37052 ft | 458 kts | 160° |
| 2026-04-28 21:50 | 44.13468 | 9.88706 | 37051 ft | 458 kts | 160° |
| 2026-04-28 21:51 | 44.07642 | 9.92184 | 37054 ft | 458 kts | 160° |
| 2026-04-28 21:51 | 44.01769 | 9.95682 | 37047 ft | 459 kts | 160° |
| 2026-04-28 21:52 | 43.95889 | 9.99178 | 37042 ft | 460 kts | 160° |
| 2026-04-28 21:52 | 43.90003 | 10.02669 | 37060 ft | 460 kts | 160° |
| 2026-04-28 21:53 | 43.84112 | 10.06157 | 37059 ft | 460 kts | 160° |
| 2026-04-28 21:53 | 43.78211 | 10.09642 | 37066 ft | 461 kts | 160° |
| 2026-04-28 21:54 | 43.72355 | 10.13093 | 37071 ft | 461 kts | 160° |
| 2026-04-28 21:54 | 43.66452 | 10.16565 | 37071 ft | 461 kts | 160° |
| 2026-04-28 21:55 | 43.60543 | 10.20033 | 37069 ft | 461 kts | 160° |
| 2026-04-28 21:55 | 43.54644 | 10.23487 | 37061 ft | 461 kts | 160° |
| 2026-04-28 21:56 | 43.48746 | 10.26934 | 37070 ft | 460 kts | 160° |
| 2026-04-28 21:56 | 43.42847 | 10.30373 | 37071 ft | 460 kts | 160° |
| 2026-04-28 21:57 | 43.36990 | 10.33782 | 37077 ft | 460 kts | 160° |
| 2026-04-28 21:57 | 43.31099 | 10.37202 | 37080 ft | 459 kts | 160° |
| 2026-04-28 21:58 | 43.25216 | 10.40611 | 37076 ft | 458 kts | 160° |
| 2026-04-28 21:58 | 43.19340 | 10.44008 | 37072 ft | 458 kts | 160° |
| 2026-04-28 21:59 | 43.13468 | 10.47396 | 37069 ft | 457 kts | 160° |
| 2026-04-28 22:00 | 43.04689 | 10.52449 | 37070 ft | 456 kts | 160° |
| 2026-04-28 22:00 | 42.98847 | 10.55802 | 37078 ft | 455 kts | 160° |
| 2026-04-28 22:01 | 42.93044 | 10.59126 | 37070 ft | 455 kts | 160° |
| 2026-04-28 22:01 | 42.87202 | 10.62466 | 37078 ft | 454 kts | 160° |
| 2026-04-28 22:02 | 42.81361 | 10.65798 | 37070 ft | 454 kts | 160° |
| 2026-04-28 22:02 | 42.75532 | 10.69116 | 37069 ft | 454 kts | 160° |
| 2026-04-28 22:03 | 42.69709 | 10.72424 | 37059 ft | 454 kts | 160° |
| 2026-04-28 22:03 | 42.63879 | 10.75730 | 37065 ft | 454 kts | 160° |
| 2026-04-28 22:04 | 42.58091 | 10.79005 | 37068 ft | 454 kts | 160° |
| 2026-04-28 22:04 | 42.52253 | 10.82301 | 37068 ft | 454 kts | 160° |
| 2026-04-28 22:05 | 42.47404 | 10.85034 | 37069 ft | 454 kts | 160° |
| 2026-04-28 22:05 | 42.40625 | 10.88848 | 37078 ft | 454 kts | 160° |
| 2026-04-28 22:06 | 42.35734 | 10.91594 | 37072 ft | 453 kts | 160° |
| 2026-04-28 22:06 | 42.29945 | 10.94838 | 37076 ft | 453 kts | 160° |
| 2026-04-28 22:07 | 42.24112 | 10.98099 | 37074 ft | 453 kts | 160° |
| 2026-04-28 22:07 | 42.18284 | 11.01352 | 37074 ft | 453 kts | 160° |
| 2026-04-28 22:08 | 42.12441 | 11.04606 | 37076 ft | 453 kts | 160° |
| 2026-04-28 22:08 | 42.06610 | 11.07847 | 37061 ft | 453 kts | 160° |
| 2026-04-28 22:09 | 42.00822 | 11.11058 | 37073 ft | 453 kts | 160° |
| 2026-04-28 22:09 | 41.94992 | 11.14287 | 37073 ft | 453 kts | 160° |
| 2026-04-28 22:10 | 41.89169 | 11.17504 | 37070 ft | 453 kts | 160° |
| 2026-04-28 22:10 | 41.83339 | 11.20719 | 37073 ft | 452 kts | 160° |
| 2026-04-28 22:11 | 41.77520 | 11.23922 | 37070 ft | 452 kts | 160° |
| 2026-04-28 22:11 | 41.71703 | 11.27117 | 37069 ft | 451 kts | 160° |
| 2026-04-28 22:12 | 41.65890 | 11.30304 | 37075 ft | 451 kts | 160° |
| 2026-04-28 22:12 | 41.60078 | 11.33484 | 37067 ft | 450 kts | 160° |
| 2026-04-28 22:13 | 41.54278 | 11.36652 | 37073 ft | 450 kts | 160° |
| 2026-04-28 22:13 | 41.48516 | 11.39792 | 37071 ft | 450 kts | 160° |
| 2026-04-28 22:14 | 41.42712 | 11.42949 | 37071 ft | 450 kts | 160° |
| 2026-04-28 22:14 | 41.36920 | 11.46094 | 37072 ft | 449 kts | 160° |
| 2026-04-28 22:15 | 41.31134 | 11.49229 | 37075 ft | 449 kts | 160° |
| 2026-04-28 22:15 | 41.25350 | 11.52357 | 37071 ft | 448 kts | 160° |
| 2026-04-28 22:16 | 41.19564 | 11.55481 | 37070 ft | 448 kts | 160° |
| 2026-04-28 22:16 | 41.13788 | 11.58592 | 37066 ft | 448 kts | 160° |
| 2026-04-28 22:17 | 41.08022 | 11.61693 | 37071 ft | 447 kts | 160° |
| 2026-04-28 22:17 | 41.02251 | 11.64791 | 37067 ft | 447 kts | 160° |
| 2026-04-28 22:18 | 40.96487 | 11.67879 | 37063 ft | 446 kts | 160° |
| 2026-04-28 22:18 | 40.90828 | 11.70905 | 37066 ft | 446 kts | 160° |
| 2026-04-28 22:19 | 40.85063 | 11.73981 | 37064 ft | 446 kts | 160° |
| 2026-04-28 22:19 | 40.79305 | 11.77049 | 37072 ft | 446 kts | 160° |
| 2026-04-28 22:20 | 40.73530 | 11.80119 | 37060 ft | 446 kts | 160° |
| 2026-04-28 22:20 | 40.67801 | 11.83160 | 37074 ft | 446 kts | 160° |
| 2026-04-28 22:21 | 40.62032 | 11.86216 | 37075 ft | 447 kts | 160° |
| 2026-04-28 22:21 | 40.56262 | 11.89267 | 37064 ft | 447 kts | 160° |
| 2026-04-28 22:22 | 40.50485 | 11.92315 | 37067 ft | 447 kts | 160° |
| 2026-04-28 22:22 | 40.44714 | 11.95356 | 37058 ft | 447 kts | 160° |
| 2026-04-28 22:23 | 40.38966 | 11.98378 | 37071 ft | 446 kts | 160° |
| 2026-04-28 22:23 | 40.33199 | 12.01405 | 37069 ft | 446 kts | 160° |
| 2026-04-28 22:24 | 40.27461 | 12.04411 | 37058 ft | 446 kts | 161° |
| 2026-04-28 22:24 | 40.21718 | 12.07413 | 37072 ft | 446 kts | 161° |
| 2026-04-28 22:25 | 40.15957 | 12.10420 | 37068 ft | 446 kts | 161° |
| 2026-04-28 22:25 | 40.10181 | 12.13429 | 37069 ft | 446 kts | 161° |
| 2026-04-28 22:26 | 40.04426 | 12.16422 | 37066 ft | 446 kts | 161° |
| 2026-04-28 22:26 | 39.98654 | 12.19419 | 37065 ft | 446 kts | 161° |
| 2026-04-28 22:27 | 39.92871 | 12.22415 | 37069 ft | 447 kts | 161° |
| 2026-04-28 22:27 | 39.87085 | 12.25408 | 37064 ft | 447 kts | 161° |
| 2026-04-28 22:28 | 39.81334 | 12.28377 | 37057 ft | 447 kts | 161° |
| 2026-04-28 22:28 | 39.75545 | 12.31360 | 37070 ft | 447 kts | 161° |
| 2026-04-28 22:29 | 39.69758 | 12.34337 | 37067 ft | 447 kts | 161° |
| 2026-04-28 22:29 | 39.63961 | 12.37313 | 37065 ft | 448 kts | 161° |
| 2026-04-28 22:30 | 39.58195 | 12.40269 | 37056 ft | 448 kts | 161° |
| 2026-04-28 22:30 | 39.52390 | 12.43239 | 37063 ft | 448 kts | 161° |
| 2026-04-28 22:31 | 39.46580 | 12.46206 | 37068 ft | 449 kts | 161° |
| 2026-04-28 22:31 | 39.40765 | 12.49170 | 37066 ft | 449 kts | 161° |
| 2026-04-28 22:32 | 39.34942 | 12.52133 | 37060 ft | 450 kts | 161° |
| 2026-04-28 22:32 | 39.29113 | 12.55094 | 37066 ft | 450 kts | 161° |
| 2026-04-28 22:33 | 39.23315 | 12.58034 | 37062 ft | 451 kts | 161° |
| 2026-04-28 22:33 | 39.17467 | 12.60994 | 37064 ft | 451 kts | 161° |
| 2026-04-28 22:34 | 39.11626 | 12.63945 | 37061 ft | 451 kts | 161° |
| 2026-04-28 22:34 | 39.05765 | 12.66901 | 37057 ft | 451 kts | 162° |
| 2026-04-28 22:35 | 38.99915 | 12.69847 | 37062 ft | 452 kts | 162° |
| 2026-04-28 22:35 | 38.94054 | 12.72792 | 37063 ft | 452 kts | 162° |
| 2026-04-28 22:36 | 38.88232 | 12.75712 | 37069 ft | 452 kts | 162° |
| 2026-04-28 22:36 | 38.82370 | 12.78648 | 37051 ft | 452 kts | 162° |
| 2026-04-28 22:37 | 38.76490 | 12.81587 | 37062 ft | 452 kts | 162° |
| 2026-04-28 22:37 | 38.70657 | 12.84497 | 37060 ft | 452 kts | 162° |
| 2026-04-28 22:38 | 38.64789 | 12.87421 | 37057 ft | 453 kts | 162° |
| 2026-04-28 22:38 | 38.58908 | 12.90345 | 37053 ft | 453 kts | 163° |
| 2026-04-28 22:39 | 38.53050 | 12.93252 | 37060 ft | 454 kts | 163° |
| 2026-04-28 22:39 | 38.47144 | 12.96179 | 37056 ft | 454 kts | 163° |
| 2026-04-28 22:40 | 38.41235 | 12.99102 | 37053 ft | 455 kts | 163° |
| 2026-04-28 22:40 | 38.35362 | 13.02002 | 37049 ft | 455 kts | 163° |
| 2026-04-28 22:41 | 38.29448 | 13.04918 | 37041 ft | 454 kts | 163° |
| 2026-04-28 22:41 | 38.26517 | 13.06362 | 36722 ft | 450 kts | 163° |
| 2026-04-28 22:41 | 38.23628 | 13.07786 | 36412 ft | 441 kts | 163° |
| 2026-04-28 22:41 | 38.20774 | 13.09190 | 36036 ft | 437 kts | 163° |
| 2026-04-28 22:42 | 38.17953 | 13.10575 | 35668 ft | 433 kts | 163° |
| 2026-04-28 22:42 | 38.15151 | 13.11949 | 35284 ft | 429 kts | 164° |
| 2026-04-28 22:42 | 38.12370 | 13.13311 | 34920 ft | 427 kts | 164° |
| 2026-04-28 22:42 | 38.09610 | 13.14663 | 34559 ft | 423 kts | 163° |
| 2026-04-28 22:43 | 38.06841 | 13.16016 | 34209 ft | 434 kts | 163° |
| 2026-04-28 22:43 | 38.03956 | 13.17418 | 33758 ft | 454 kts | 163° |
| 2026-04-28 22:43 | 38.00956 | 13.18918 | 33230 ft | 471 kts | 162° |
| 2026-04-28 22:43 | 37.97978 | 13.20479 | 32789 ft | 468 kts | 161° |
| 2026-04-28 22:44 | 37.94988 | 13.22083 | 32367 ft | 465 kts | 161° |
| 2026-04-28 22:44 | 37.92015 | 13.23685 | 31957 ft | 463 kts | 161° |
| 2026-04-28 22:44 | 37.89062 | 13.25270 | 31553 ft | 460 kts | 161° |
| 2026-04-28 22:44 | 37.86126 | 13.26836 | 31163 ft | 457 kts | 161° |
| 2026-04-28 22:45 | 37.83196 | 13.28389 | 30783 ft | 455 kts | 161° |
| 2026-04-28 22:45 | 37.80274 | 13.29933 | 30395 ft | 452 kts | 161° |
| 2026-04-28 22:45 | 37.77373 | 13.31461 | 30002 ft | 450 kts | 161° |
| 2026-04-28 22:45 | 37.74479 | 13.32984 | 29534 ft | 448 kts | 161° |
| 2026-04-28 22:46 | 37.71607 | 13.34494 | 29114 ft | 445 kts | 161° |
| 2026-04-28 22:46 | 37.68790 | 13.35974 | 28725 ft | 442 kts | 161° |
| 2026-04-28 22:46 | 37.65963 | 13.37459 | 28308 ft | 439 kts | 161° |
| 2026-04-28 22:46 | 37.63145 | 13.38937 | 27901 ft | 437 kts | 161° |
| 2026-04-28 22:47 | 37.60342 | 13.40407 | 27492 ft | 435 kts | 161° |
| 2026-04-28 22:47 | 37.57557 | 13.41866 | 27103 ft | 432 kts | 161° |
| 2026-04-28 22:47 | 37.54788 | 13.43315 | 26705 ft | 430 kts | 161° |
| 2026-04-28 22:47 | 37.52031 | 13.44757 | 26319 ft | 427 kts | 161° |
| 2026-04-28 22:48 | 37.49300 | 13.46184 | 25934 ft | 425 kts | 161° |
| 2026-04-28 22:48 | 37.46571 | 13.47609 | 25541 ft | 423 kts | 161° |
| 2026-04-28 22:48 | 37.43852 | 13.49028 | 25147 ft | 422 kts | 161° |
| 2026-04-28 22:48 | 37.41144 | 13.50440 | 24754 ft | 420 kts | 161° |
| 2026-04-28 22:49 | 37.38444 | 13.51847 | 24379 ft | 419 kts | 161° |
| 2026-04-28 22:49 | 37.35753 | 13.53248 | 23981 ft | 418 kts | 161° |
| 2026-04-28 22:49 | 37.33073 | 13.54642 | 23574 ft | 416 kts | 161° |
| 2026-04-28 22:49 | 37.30403 | 13.56030 | 23121 ft | 414 kts | 161° |
| 2026-04-28 22:50 | 37.27754 | 13.57404 | 22754 ft | 409 kts | 161° |
| 2026-04-28 22:50 | 37.25171 | 13.58736 | 22401 ft | 405 kts | 161° |
| 2026-04-28 22:50 | 37.22570 | 13.60073 | 22009 ft | 402 kts | 161° |
| 2026-04-28 22:50 | 37.19985 | 13.61402 | 21642 ft | 400 kts | 161° |
| 2026-04-28 22:51 | 37.17418 | 13.62721 | 21270 ft | 398 kts | 161° |
| 2026-04-28 22:51 | 37.14860 | 13.64036 | 20898 ft | 396 kts | 161° |
| 2026-04-28 22:51 | 37.12310 | 13.65345 | 20530 ft | 395 kts | 161° |
| 2026-04-28 22:51 | 37.09771 | 13.66651 | 20158 ft | 393 kts | 161° |
| 2026-04-28 22:52 | 37.07238 | 13.67955 | 19800 ft | 396 kts | 161° |
| 2026-04-28 22:52 | 37.05523 | 13.68835 | 19563 ft | 407 kts | 161° |
| 2026-04-28 22:52 | 37.02871 | 13.70196 | 19156 ft | 415 kts | 160° |
| 2026-04-28 22:52 | 37.00200 | 13.71570 | 18765 ft | 413 kts | 160° |
| 2026-04-28 22:53 | 36.97545 | 13.72936 | 18367 ft | 410 kts | 160° |
| 2026-04-28 22:53 | 36.94918 | 13.74288 | 17926 ft | 407 kts | 160° |
| 2026-04-28 22:53 | 36.92313 | 13.75626 | 17511 ft | 403 kts | 160° |
| 2026-04-28 22:53 | 36.89728 | 13.76953 | 17105 ft | 400 kts | 160° |
| 2026-04-28 22:54 | 36.87199 | 13.78249 | 16739 ft | 396 kts | 160° |
| 2026-04-28 22:54 | 36.84658 | 13.79550 | 16372 ft | 394 kts | 160° |
| 2026-04-28 22:54 | 36.82131 | 13.80843 | 15993 ft | 391 kts | 160° |
| 2026-04-28 22:54 | 36.79620 | 13.82126 | 15632 ft | 389 kts | 160° |
| 2026-04-28 22:55 | 36.77115 | 13.83405 | 15265 ft | 387 kts | 160° |
| 2026-04-28 22:55 | 36.74624 | 13.84677 | 14901 ft | 386 kts | 161° |
| 2026-04-28 22:55 | 36.72142 | 13.85942 | 14535 ft | 385 kts | 161° |
| 2026-04-28 22:55 | 36.69663 | 13.87206 | 14174 ft | 383 kts | 160° |
| 2026-04-28 22:56 | 36.67193 | 13.88464 | 13775 ft | 382 kts | 160° |
| 2026-04-28 22:56 | 36.64739 | 13.89713 | 13372 ft | 380 kts | 160° |
| 2026-04-28 22:56 | 36.62298 | 13.90955 | 12986 ft | 378 kts | 160° |
| 2026-04-28 22:56 | 36.59871 | 13.92189 | 12599 ft | 375 kts | 160° |
| 2026-04-28 22:57 | 36.57466 | 13.93411 | 12259 ft | 372 kts | 160° |
| 2026-04-28 22:57 | 36.55076 | 13.94625 | 11899 ft | 369 kts | 160° |
| 2026-04-28 22:57 | 36.52702 | 13.95829 | 11537 ft | 366 kts | 160° |
| 2026-04-28 22:57 | 36.50388 | 13.97003 | 11185 ft | 360 kts | 160° |
| 2026-04-28 22:58 | 36.48138 | 13.98273 | 10904 ft | 352 kts | 156° |
| 2026-04-28 22:58 | 36.45959 | 13.99661 | 10573 ft | 345 kts | 154° |
| 2026-04-28 22:58 | 36.43881 | 14.01028 | 10259 ft | 339 kts | 154° |
| 2026-04-28 22:58 | 36.41833 | 14.02381 | 10105 ft | 328 kts | 154° |
| 2026-04-28 22:59 | 36.39847 | 14.03683 | 10008 ft | 315 kts | 155° |
| 2026-04-28 22:59 | 36.37949 | 14.04919 | 9998 ft | 301 kts | 155° |
| 2026-04-28 22:59 | 36.36114 | 14.06109 | 9942 ft | 289 kts | 155° |
| 2026-04-28 22:59 | 36.34360 | 14.07238 | 9695 ft | 280 kts | 156° |
| 2026-04-28 23:00 | 36.32633 | 14.08347 | 9184 ft | 279 kts | 155° |
| 2026-04-28 23:00 | 36.30938 | 14.09436 | 8773 ft | 275 kts | 154° |
| 2026-04-28 23:00 | 36.29240 | 14.10523 | 8310 ft | 273 kts | 154° |
| 2026-04-28 23:00 | 36.27559 | 14.11597 | 7916 ft | 268 kts | 154° |
| 2026-04-28 23:01 | 36.25906 | 14.12653 | 7624 ft | 266 kts | 154° |
| 2026-04-28 23:01 | 36.24266 | 14.13700 | 7353 ft | 265 kts | 154° |
| 2026-04-28 23:01 | 36.22632 | 14.14744 | 7095 ft | 263 kts | 154° |
| 2026-04-28 23:01 | 36.21029 | 14.15767 | 6848 ft | 262 kts | 155° |
| 2026-04-28 23:02 | 36.19414 | 14.16797 | 6595 ft | 260 kts | 154° |
| 2026-04-28 23:02 | 36.17803 | 14.17825 | 6324 ft | 260 kts | 154° |
| 2026-04-28 23:02 | 36.16195 | 14.18850 | 6032 ft | 259 kts | 154° |
| 2026-04-28 23:02 | 36.14596 | 14.19869 | 5791 ft | 257 kts | 154° |
| 2026-04-28 23:03 | 36.13009 | 14.20880 | 5520 ft | 256 kts | 154° |
| 2026-04-28 23:03 | 36.11428 | 14.21887 | 5256 ft | 254 kts | 154° |
| 2026-04-28 23:03 | 36.09885 | 14.22871 | 5152 ft | 246 kts | 153° |
| 2026-04-28 23:03 | 36.08379 | 14.23829 | 5021 ft | 239 kts | 154° |
| 2026-04-28 23:04 | 36.06918 | 14.24759 | 4913 ft | 231 kts | 153° |
| 2026-04-28 23:04 | 36.04174 | 14.26504 | 4709 ft | 215 kts | 154° |
| 2026-04-28 23:04 | 36.02863 | 14.27335 | 4480 ft | 207 kts | 153° |
| 2026-04-28 23:05 | 36.01617 | 14.28133 | 4287 ft | 197 kts | 150° |
| 2026-04-28 23:05 | 36.00620 | 14.29240 | 4093 ft | 189 kts | 133° |
| 2026-04-28 23:05 | 35.99738 | 14.30357 | 4065 ft | 180 kts | 136° |
| 2026-04-28 23:05 | 35.98820 | 14.31473 | 3857 ft | 188 kts | 135° |
| 2026-04-28 23:06 | 35.97901 | 14.32605 | 3611 ft | 184 kts | 135° |
| 2026-04-28 23:06 | 35.97009 | 14.33715 | 3375 ft | 181 kts | 135° |
| 2026-04-28 23:06 | 35.96135 | 14.34799 | 3149 ft | 175 kts | 135° |
| 2026-04-28 23:06 | 35.95293 | 14.35847 | 2916 ft | 169 kts | 134° |
| 2026-04-28 23:07 | 35.94485 | 14.36853 | 2704 ft | 164 kts | 135° |
| 2026-04-28 23:07 | 35.93688 | 14.37846 | 2482 ft | 162 kts | 135° |
| 2026-04-28 23:07 | 35.92893 | 14.38835 | 2296 ft | 164 kts | 134° |
| 2026-04-28 23:07 | 35.92085 | 14.39841 | 2078 ft | 165 kts | 134° |
| 2026-04-28 23:08 | 35.91286 | 14.40836 | 1843 ft | 157 kts | 135° |
| 2026-04-28 23:08 | 35.90556 | 14.41744 | 1649 ft | 146 kts | 134° |
| 2026-04-28 23:08 | 35.89854 | 14.42624 | 1432 ft | 142 kts | 134° |
| 2026-04-28 23:08 | 35.89166 | 14.43477 | 1243 ft | 140 kts | 134° |
| 2026-04-28 23:09 | 35.88479 | 14.44332 | 1067 ft | 142 kts | 134° |
| 2026-04-28 23:09 | 35.87789 | 14.45193 | 882 ft | 140 kts | 133° |
| 2026-04-28 23:09 | 35.87104 | 14.46048 | 696 ft | 141 kts | 133° |
| 2026-04-28 23:09 | 35.86412 | 14.46916 | 525 ft | 142 kts | 133° |
| 2026-04-28 23:10 | 35.85712 | 14.47788 | 334 ft | 145 kts | 133° |
| 2026-04-28 23:10 | 35.85042 | 14.48625 | 265 ft | 119 kts | 135° |
| 2026-04-28 23:10 | 35.84626 | 14.49138 | 258 ft | 43 kts | 135° |
| 2026-04-28 23:10 | 35.84467 | 14.49411 | 258 ft | 22 kts | 111° |
| 2026-04-28 23:11 | 35.84447 | 14.49516 | 258 ft | 9 kts | 84° |
| 2026-04-28 23:11 | 35.84484 | 14.49576 | 258 ft | 9 kts | 29° |
| 2026-04-28 23:11 | 35.84511 | 14.49574 | 258 ft | 3 kts | 336° |
| 2026-04-28 23:11 | 35.84537 | 14.49551 | 258 ft | 6 kts | 314° |
| 2026-04-28 23:12 | 35.84579 | 14.49534 | 258 ft | 7 kts | 14° |
| 2026-04-28 23:12 | 35.84617 | 14.49569 | 258 ft | 7 kts | 39° |
| 2026-04-28 23:12 | 35.84662 | 14.49575 | 258 ft | 7 kts | 346° |
| 2026-04-28 23:12 | 35.84705 | 14.49551 | 258 ft | 7 kts | 323° |
| 2026-04-28 23:13 | 35.84738 | 14.49510 | 258 ft | 7 kts | 315° |
| 2026-04-28 23:13 | 35.84771 | 14.49471 | 258 ft | 7 kts | 327° |
| 2026-04-28 23:13 | 35.84815 | 14.49457 | 258 ft | 7 kts | 358° |
| 2026-04-28 23:13 | 35.84856 | 14.49455 | 258 ft | 4 kts | 359° |
| 2026-04-28 23:14 | 35.84858 | 14.49455 | 258 ft | 0 kts | 359° |